Data for 01/30/2009

Time Sea-Level Adjusted Pressure Absolute Pressure Temperature Relative Humidity Dew Point   
(mb) (inHg) (mb) (inHg) (C) (F) (%) (C) (F)
00:05 1027 30.33 856 25.28 0.9 33.6 57 -6.8 19.8
00:10 1027 30.33 856 25.28 0.8 33.4 57 -6.7 19.9
00:15 1027 30.33 856 25.28 1 33.8 56 -6.8 19.8
00:20 1027 30.33 856 25.28 1.1 34 56 -6.7 20
00:25 1027 30.33 856 25.28 0.9 33.7 57 -6.6 20.1
00:30 1027 30.33 856 25.28 0.4 32.7 59 -6.6 20.1
00:35 1027 30.33 856 25.28 0 32 60 -6.8 19.7
00:40 1027 30.33 856 25.28 -0.1 31.7 61 -6.9 19.6
00:45 1027 30.33 856 25.28 -0.1 31.8 60 -6.9 19.5
00:50 1027 30.33 856 25.28 0 32.1 60 -6.9 19.6
00:55 1027 30.33 856 25.28 -0.1 31.9 60 -6.9 19.6
01:00 1027 30.33 856 25.28 -0.2 31.7 60 -6.9 19.5
01:05 1027 30.33 856 25.28 -0.1 31.9 59 -7.2 19
01:10 1027 30.33 856 25.28 0.3 32.5 58 -7 19.4
01:15 1027 30.33 856 25.28 0.4 32.6 58 -6.9 19.5
01:20 1027 30.33 856 25.28 0.3 32.5 58 -7 19.4
01:25 1027 30.33 856 25.28 0.3 32.6 58 -7 19.4
01:30 1027 30.33 856 25.28 -0.1 31.8 60 -7 19.4
01:35 1027 30.33 856 25.28 -0.4 31.2 61 -7.2 19.1
01:40 1027 30.33 856 25.28 -0.3 31.4 60 -7.2 19
01:45 1027 30.33 856 25.28 -0.3 31.4 60 -7.2 19.1
01:50 1027 30.33 856 25.28 -0.3 31.4 60 -7.2 19.1
01:55 1027 30.33 856 25.28 -0.4 31.4 60 -7.2 19.1
02:00 1027 30.33 856 25.28 -0.4 31.3 60 -7.3 18.9
02:05 1027 30.33 856 25.28 -0.3 31.5 59 -7.2 19
02:10 1027 30.33 857 25.31 -0.3 31.5 60 -7.2 19
02:15 1027 30.33 857 25.31 -0.3 31.4 60 -7.3 18.9
02:20 1027 30.33 857 25.31 -0.3 31.5 59 -7.3 18.9
02:25 1027 30.33 857 25.31 -0.3 31.5 60 -7.2 19
02:30 1028 30.36 857 25.31 -0.4 31.4 60 -7.2 19
02:35 1028 30.36 857 25.31 -0.6 31 60 -7.3 18.8
02:40 1028 30.36 857 25.31 -0.9 30.4 62 -7.4 18.8
02:45 1028 30.36 857 25.31 -1.6 29.2 64 -7.5 18.4
02:50 1028 30.36 857 25.31 -1.8 28.8 64 -7.7 18.1
02:55 1028 30.36 857 25.31 -2 28.4 64 -8 17.6
03:00 1028 30.36 857 25.31 -1.9 28.6 64 -7.8 17.9
03:05 1028 30.36 857 25.31 -2.1 28.3 64 -8 17.6
03:10 1028 30.36 857 25.31 -2 28.5 64 -7.9 17.7
03:15 1028 30.36 857 25.31 -2.2 28 65 -7.9 17.7
03:20 1028 30.36 857 25.31 -1.8 28.8 62 -8.1 17.4
03:25 1028 30.36 857 25.31 -1.6 29.2 63 -7.8 18
03:30 1028 30.36 857 25.31 -1.6 29.1 62 -7.9 17.8
03:35 1028 30.36 857 25.31 -1.8 28.8 62 -8.1 17.3
03:40 1028 30.36 857 25.31 -1.8 28.8 62 -8.1 17.4
03:45 1028 30.36 857 25.31 -2 28.3 64 -8 17.6
03:50 1028 30.36 857 25.31 -2.1 28.3 63 -8.2 17.3
03:55 1028 30.36 857 25.31 -1.8 28.7 63 -8 17.7
04:00 1028 30.36 857 25.31 -1.7 29 61 -8.2 17.2
04:05 1028 30.36 857 25.31 -1.5 29.3 61 -8 17.6
04:10 1028 30.36 857 25.31 -1.4 29.4 61 -8.1 17.4
04:15 1028 30.36 857 25.31 -1.5 29.3 61 -8.1 17.4
04:20 1028 30.36 857 25.31 -1.4 29.4 60 -8.3 17.1
04:25 1028 30.36 857 25.31 -1.2 29.9 59 -8.2 17.2
04:30 1028 30.36 857 25.31 -1 30.1 58 -8.3 17
04:35 1028 30.36 857 25.31 -1 30.3 57 -8.4 17
04:40 1028 30.36 857 25.31 -0.4 31.3 55 -8.4 16.9
04:45 1028 30.36 857 25.31 0.1 32.2 53 -8.4 17
04:50 1028 30.36 857 25.31 -0.2 31.6 54 -8.5 16.7
04:55 1028 30.36 857 25.31 -0.3 31.4 53 -8.8 16.2
05:00 1028 30.36 857 25.31 -0.1 31.9 52 -8.8 16.2
05:05 1028 30.36 857 25.31 -0.1 31.8 53 -8.6 16.6
05:10 1028 30.36 857 25.31 -0.6 31 55 -8.6 16.6
05:15 1028 30.36 857 25.31 -0.9 30.3 56 -8.5 16.6
05:20 1028 30.36 857 25.31 -1.4 29.5 58 -8.6 16.4
05:25 1028 30.36 857 25.31 -1.8 28.8 60 -8.7 16.4
05:30 1028 30.36 857 25.31 -2 28.5 59 -9 15.9
05:35 1028 30.36 857 25.31 -1.9 28.6 57 -9.2 15.4
05:40 1028 30.36 857 25.31 -1.6 29.1 57 -9 15.8
05:45 1028 30.36 857 25.31 -1.9 28.5 59 -9 15.8
05:50 1028 30.36 857 25.31 -2 28.4 59 -9.1 15.6
05:55 1028 30.36 857 25.31 -2.2 28 60 -9.1 15.7
06:00 1028 30.36 857 25.31 -2.5 27.6 60 -9.3 15.3
06:05 1028 30.36 857 25.31 -3.1 26.5 62 -9.3 15.2
06:10 1028 30.36 857 25.31 -3.4 25.9 63 -9.5 14.9
06:15 1028 30.36 857 25.31 -3.4 25.9 64 -9.4 15.1
06:20 1028 30.36 857 25.31 -3.4 25.8 63 -9.5 14.8
06:25 1028 30.36 857 25.31 -3.3 26 63 -9.4 15
06:30 1028 30.36 857 25.31 -3.5 25.8 63 -9.4 15
06:35 1028 30.36 857 25.31 -3.5 25.7 64 -9.3 15.3
06:40 1028 30.36 857 25.31 -3.4 25.8 64 -9.2 15.4
06:45 1028 30.36 857 25.31 -3.1 26.4 63 -9.2 15.4
06:50 1028 30.36 857 25.31 -3.2 26.3 62 -9.4 15.1
06:55 1028 30.36 857 25.31 -3 26.6 62 -9.4 15.1
07:00 1028 30.36 857 25.31 -2.7 27.1 61 -9.2 15.4
07:05 1028 30.36 857 25.31 -2.6 27.3 60 -9.4 15.1
07:10 1028 30.36 857 25.31 -2.4 27.6 60 -9.2 15.5
07:15 1028 30.36 857 25.31 -2.8 27 60 -9.4 15.1
07:20 1028 30.36 857 25.31 -2.6 27.3 60 -9.3 15.2
07:25 1028 30.36 857 25.31 -2.5 27.4 59 -9.4 15
07:30 1028 30.36 857 25.31 -2.7 27.2 60 -9.4 15.1
07:35 1028 30.36 857 25.31 -2.7 27.2 60 -9.4 15
07:40 1028 30.36 857 25.31 -2.9 26.7 61 -9.5 14.9
07:45 1028 30.36 857 25.31 -3.2 26.2 61 -9.6 14.6
07:50 1028 30.36 857 25.31 -3.3 26 62 -9.7 14.5
07:55 1028 30.36 858 25.34 -3.2 26.2 61 -9.6 14.6
08:00 1028 30.36 858 25.34 -3 26.5 61 -9.5 14.8
08:05 1029 30.39 858 25.34 -3 26.6 62 -9.4 15.1
08:10 1029 30.39 858 25.34 -2.9 26.9 61 -9.3 15.2
08:15 1029 30.39 858 25.34 -2.8 26.9 63 -8.9 15.9
08:20 1028 30.36 858 25.34 -2.9 26.9 61 -9.4 15
08:25 1028 30.36 858 25.34 -2.5 27.5 59 -9.5 14.9
08:30 1028 30.36 858 25.34 -2.3 27.9 59 -9.3 15.3
08:35 1028 30.36 858 25.34 -2.1 28.3 58 -9.2 15.4
08:40 1028 30.36 858 25.34 -2 28.4 58 -9.2 15.4
08:45 1028 30.36 858 25.34 -1.8 28.7 57 -9.1 15.5
08:50 1028 30.36 858 25.34 -1.5 29.2 57 -8.9 15.9
08:55 1028 30.36 858 25.34 -1.3 29.6 57 -8.8 16.2
09:00 1028 30.36 858 25.34 -1.7 28.9 59 -8.7 16.3
09:05 1028 30.36 858 25.34 -1.9 28.5 60 -8.6 16.5
09:10 1028 30.36 858 25.34 -2.2 28 61 -8.8 16.2
09:15 1028 30.36 858 25.34 -2.5 27.5 62 -8.8 16.1
09:20 1028 30.36 858 25.34 -2.7 27.1 62 -9 15.8
09:25 1029 30.39 858 25.34 -2.7 27.1 61 -9.1 15.5
09:30 1029 30.39 858 25.34 -2.6 27.4 60 -9.2 15.4
09:35 1029 30.39 858 25.34 -2.4 27.6 60 -9.2 15.5
09:40 1028 30.36 858 25.34 -2.4 27.7 59 -9.3 15.3
09:45 1029 30.39 858 25.34 -2.3 27.9 60 -9.1 15.6
09:50 1029 30.39 858 25.34 -1.5 29.2 57 -9.1 15.6
09:55 1029 30.39 858 25.34 -1 30.2 54 -9.2 15.4
10:00 1029 30.39 858 25.34 -0.8 30.5 54 -9 15.8
10:05 1029 30.39 858 25.34 -1 30.2 55 -8.8 16.1
10:10 1029 30.39 858 25.34 -0.7 30.7 54 -9 15.8
10:15 1029 30.39 858 25.34 -0.7 30.8 53 -9 15.8
10:20 1029 30.39 858 25.34 0.1 32.2 49 -9.2 15.4
10:25 1029 30.39 858 25.34 0.6 33 49 -9 15.7
10:30 1028 30.36 858 25.34 0.9 33.6 47 -9.3 15.3
10:35 1028 30.36 858 25.34 0.7 33.3 50 -8.6 16.4
10:40 1028 30.36 858 25.34 1.2 34.2 47 -9 15.8
10:45 1028 30.36 858 25.34 1.3 34.3 48 -8.7 16.4
10:50 1028 30.36 857 25.31 1.2 34.2 47 -9 15.8
10:55 1028 30.36 857 25.31 1.5 34.7 46 -8.8 16.2
11:00 1028 30.36 857 25.31 1.9 35.4 44 -9.1 15.6
11:05 1028 30.36 857 25.31 2.1 35.7 45 -8.6 16.5
11:10 1028 30.36 857 25.31 1.7 35.1 47 -8.5 16.6
11:15 1028 30.36 857 25.31 1.8 35.2 45 -8.9 16
11:20 1028 30.36 857 25.31 1.9 35.4 45 -8.9 15.9
11:25 1028 30.36 857 25.31 1.9 35.4 45 -9 15.9
11:30 1027 30.33 857 25.31 1.6 34.8 46 -8.8 16.1
11:35 1027 30.33 857 25.31 1.6 34.8 45 -9.1 15.7
11:40 1027 30.33 856 25.28 1.4 34.6 44 -9.5 14.9
11:45 1027 30.33 856 25.28 2 35.6 44 -9 15.8
11:50 1027 30.33 856 25.28 2.7 36.9 41 -9.4 15.1
11:55 1027 30.33 856 25.28 3 37.5 41 -9.1 15.6
12:00 1027 30.33 856 25.28 3.3 37.9 39 -9.3 15.2
12:05 1027 30.33 856 25.28 3.6 38.5 39 -9 15.8
12:10 1027 30.33 856 25.28 4.5 40 38 -8.7 16.3
12:15 1026 30.3 856 25.28 5.2 41.3 33 -9.9 14.2
12:20 1026 30.3 856 25.28 5.6 42 31 -10.5 13.2
12:25 1026 30.3 855 25.25 5.8 42.5 32 -9.7 14.5
12:30 1026 30.3 855 25.25 5.8 42.5 32 -9.6 14.7
12:35 1026 30.3 855 25.25 5.9 42.6 34 -8.9 15.9
12:40 1026 30.3 855 25.25 6.1 43.1 33 -8.9 16.1
12:45 1026 30.3 855 25.25 6.5 43.7 33 -8.7 16.4
12:50 1026 30.3 855 25.25 6.4 43.5 33 -8.8 16.1
12:55 1026 30.3 855 25.25 6.5 43.7 32 -9.2 15.5
13:00 1026 30.3 855 25.25 6.5 43.7 33 -8.8 16.1
13:05 1026 30.3 855 25.25 6.6 43.9 32 -9.1 15.5
13:10 1026 30.3 855 25.25 6.3 43.4 32 -9.1 15.6
13:15 1026 30.3 855 25.25 6.5 43.6 31 -9.4 15.1
13:20 1025 30.27 855 25.25 6.7 44.1 33 -8.6 16.5
13:25 1025 30.27 855 25.25 6.9 44.4 33 -8.5 16.7
13:30 1025 30.27 854 25.22 6.7 44 33 -8.6 16.5
13:35 1025 30.27 854 25.22 6.3 43.3 39 -6.7 20
13:40 1025 30.27 854 25.22 6.3 43.4 41 -6.1 21
13:45 1025 30.27 854 25.22 6.8 44.2 39 -6.3 20.6
13:50 1025 30.27 854 25.22 6.8 44.2 40 -6 21.2
13:55 1025 30.27 854 25.22 5.8 42.5 43 -5.9 21.4
14:00 1025 30.27 854 25.22 5 40.9 42 -6.8 19.7
14:05 1024 30.24 854 25.22 5.4 41.7 42 -6.3 20.6
14:10 1024 30.24 854 25.22 5.8 42.4 39 -7 19.4
14:15 1024 30.24 853 25.19 5.9 42.7 38 -7.3 18.8
14:20 1024 30.24 853 25.19 5.8 42.4 39 -7 19.4
14:25 1024 30.24 853 25.19 5.5 42 36 -8.3 17
14:30 1024 30.24 853 25.19 5.9 42.7 35 -8.4 16.9
14:35 1024 30.24 853 25.19 6.1 42.9 34 -8.8 16.2
14:40 1024 30.24 853 25.19 5.8 42.4 34 -8.8 16.2
14:45 1024 30.24 853 25.19 5.9 42.6 34 -8.9 16
14:50 1024 30.24 853 25.19 5.6 42.1 33 -9.4 15.1
14:55 1024 30.24 853 25.19 5.5 41.9 34 -9.3 15.3
15:00 1024 30.24 853 25.19 5.6 42.1 35 -8.7 16.3
15:05 1024 30.24 853 25.19 5.8 42.5 34 -8.9 15.9
15:10 1024 30.24 853 25.19 5.8 42.5 33 -9.4 15
15:15 1024 30.24 853 25.19 6.2 43.1 32 -9.3 15.3
15:20 1024 30.24 853 25.19 6.3 43.3 33 -8.7 16.4
15:25 1024 30.24 853 25.19 6.2 43.2 33 -8.9 16
15:30 1024 30.24 853 25.19 5.9 42.7 33 -9.1 15.6
15:35 1024 30.24 853 25.19 5.9 42.6 34 -8.9 16
15:40 1024 30.24 853 25.19 5.9 42.5 33 -9 15.7
15:45 1024 30.24 853 25.19 5.5 41.9 35 -8.6 16.5
15:50 1024 30.24 853 25.19 5.5 42 35 -8.8 16.1
15:55 1024 30.24 853 25.19 5.5 41.9 35 -8.6 16.5
16:00 1023 30.21 853 25.19 5.4 41.7 36 -8.5 16.7
16:05 1023 30.21 853 25.19 5.6 42 34 -9.1 15.7
16:10 1023 30.21 853 25.19 6.1 43 42 -6 21.2
16:15 1023 30.21 852 25.16 6.2 43.2 39 -6.6 20.1
16:20 1023 30.21 852 25.16 6.1 43.1 40 -6.3 20.6
16:25 1023 30.21 852 25.16 6.1 42.9 41 -6.3 20.7
16:30 1023 30.21 852 25.16 5.4 41.8 40 -7.1 19.3
16:35 1023 30.21 852 25.16 5.1 41.3 42 -6.8 19.7
16:40 1023 30.21 852 25.16 4.8 40.6 42 -7.2 19.1
16:45 1023 30.21 852 25.16 4.3 39.7 41 -7.7 18.1
16:50 1023 30.21 852 25.16 4.5 40.1 39 -8.5 16.8
16:55 1023 30.21 852 25.16 4.5 40.2 38 -8.7 16.4
17:00 1022 30.18 852 25.16 4.3 39.7 38 -8.9 15.9
17:05 1022 30.18 852 25.16 3.9 39 39 -8.7 16.3
17:10 1022 30.18 851 25.13 3.8 38.8 39 -9 15.8
17:15 1022 30.18 851 25.13 3.6 38.4 38 -9.4 15.2
17:20 1022 30.18 851 25.13 3.4 38.2 39 -9.2 15.5
17:25 1022 30.18 851 25.13 3.2 37.8 41 -8.7 16.4
17:30 1022 30.18 851 25.13 2.9 37.3 43 -8.4 16.9
17:35 1022 30.18 851 25.13 2.6 36.7 43 -8.6 16.5
17:40 1022 30.18 851 25.13 2.6 36.7 43 -8.7 16.4
17:45 1022 30.18 851 25.13 2.4 36.3 44 -8.7 16.3
17:50 1022 30.18 851 25.13 2.2 36 45 -8.5 16.6
17:55 1022 30.18 851 25.13 2 35.5 47 -8.3 17.1
18:00 1022 30.18 851 25.13 1.5 34.7 48 -8.3 17
18:05 1022 30.18 851 25.13 1.2 34.2 49 -8.4 16.8
18:10 1021 30.15 851 25.13 1.1 34 48 -8.7 16.4
18:15 1021 30.15 851 25.13 1.1 34 49 -8.5 16.7
18:20 1021 30.15 851 25.13 1 33.7 50 -8.4 16.8
18:25 1021 30.15 851 25.13 1.1 34 49 -8.5 16.8
18:30 1021 30.15 850 25.1 1.2 34.2 50 -8.2 17.2
18:35 1021 30.15 850 25.1 1.1 34 50 -8.2 17.2
18:40 1021 30.15 850 25.1 1.1 33.9 50 -8.4 17
18:45 1021 30.15 850 25.1 1.2 34.1 48 -8.6 16.6
18:50 1021 30.15 850 25.1 1.3 34.3 48 -8.5 16.7
18:55 1021 30.15 850 25.1 1.4 34.5 47 -8.6 16.6
19:00 1021 30.15 850 25.1 1.5 34.6 47 -8.6 16.5
19:05 1021 30.15 850 25.1 1.4 34.5 47 -8.9 16.1
19:10 1021 30.15 850 25.1 1.3 34.4 48 -8.6 16.5
19:15 1021 30.15 850 25.1 1.2 34.2 48 -8.6 16.6
19:20 1021 30.15 850 25.1 1 33.9 49 -8.5 16.6
19:25 1021 30.15 850 25.1 0.7 33.2 51 -8.5 16.8
19:30 1021 30.15 850 25.1 0.5 32.9 50 -8.7 16.3
19:35 1021 30.15 850 25.1 0.5 32.9 51 -8.6 16.5
19:40 1021 30.15 850 25.1 0.6 33.1 49 -8.9 16
19:45 1020 30.12 850 25.1 0.9 33.6 48 -9 15.8
19:50 1020 30.12 850 25.1 1.1 34 47 -9 15.7
19:55 1020 30.12 850 25.1 1 33.7 48 -8.8 16.1
20:00 1020 30.12 850 25.1 0.5 32.9 50 -8.7 16.4
20:05 1020 30.12 849 25.07 0.2 32.4 50 -8.9 15.9
20:10 1020 30.12 849 25.07 0.4 32.7 48 -9.3 15.3
20:15 1020 30.12 849 25.07 0.8 33.4 48 -9.2 15.5
20:20 1020 30.12 849 25.07 0.5 33 49 -9 15.7
20:25 1020 30.12 849 25.07 0.3 32.5 49 -9.3 15.3
20:30 1020 30.12 849 25.07 -0.1 31.8 51 -9.2 15.5
20:35 1020 30.12 849 25.07 -0.2 31.6 50 -9.4 15.2
20:40 1020 30.12 849 25.07 -0.4 31.3 51 -9.4 15.1
20:45 1020 30.12 849 25.07 -0.3 31.5 50 -9.5 14.9
20:50 1020 30.12 849 25.07 0.1 32.1 49 -9.5 14.9
20:55 1020 30.12 849 25.07 0 32.1 49 -9.4 15.1
21:00 1020 30.12 849 25.07 -0 31.9 49 -9.4 15.1
21:05 1019 30.09 849 25.07 -0.5 31.2 51 -9.5 15
21:10 1019 30.09 849 25.07 -0.8 30.6 51 -9.8 14.4
21:15 1019 30.09 849 25.07 -0.9 30.4 50 -9.9 14.1
21:20 1019 30.09 848 25.04 -0.8 30.5 50 -10 14.1
21:25 1019 30.09 848 25.04 -0.7 30.7 50 -9.9 14.2
21:30 1019 30.09 848 25.04 -1.1 30 51 -9.9 14.1
21:35 1019 30.09 848 25.04 -1.4 29.4 52 -10.1 13.8
21:40 1019 30.09 848 25.04 -1.5 29.3 50 -10.6 13
21:45 1019 30.09 848 25.04 -1.1 30.1 51 -10.1 13.9
21:50 1019 30.09 848 25.04 -1 30.2 47 -10.8 12.6
21:55 1019 30.09 848 25.04 0.1 32.2 46 -10.3 13.4
22:00 1019 30.09 848 25.04 -0.1 31.8 48 -9.8 14.3
22:05 1019 30.09 848 25.04 -0.7 30.7 49 -10.1 13.8
22:10 1019 30.09 848 25.04 -0.8 30.5 50 -10 13.9
22:15 1018 30.06 848 25.04 -1 30.3 50 -10.1 13.7
22:20 1018 30.06 848 25.04 -1 30.3 50 -10.2 13.6
22:25 1018 30.06 848 25.04 -1 30.2 50 -10.2 13.6
22:30 1018 30.06 847 25.01 -1.1 30 51 -10.1 13.8
22:35 1018 30.06 847 25.01 -1.2 29.8 51 -10.2 13.6
22:40 1018 30.06 847 25.01 -1.1 30 50 -10.3 13.4
22:45 1018 30.06 847 25.01 -0.8 30.5 48 -10.5 13.1
22:50 1018 30.06 847 25.01 -0.6 30.9 47 -10.5 13.1
22:55 1018 30.06 847 25.01 -0.3 31.4 46 -10.5 13.1
23:00 1018 30.06 847 25.01 -0.1 31.8 45 -10.6 12.9
23:05 1018 30.06 847 25.01 0.1 32.1 45 -10.5 13
23:10 1018 30.06 847 25.01 0 32.1 45 -10.5 13.1
23:15 1018 30.06 847 25.01 -0.3 31.5 46 -10.5 13.1
23:20 1017 30.03 847 25.01 -0.8 30.6 47 -10.7 12.7
23:25 1017 30.03 846 24.98 -0.9 30.5 47 -10.9 12.4
23:30 1017 30.03 847 25.01 -0.9 30.4 46 -11.1 12.1
23:35 1017 30.03 847 25.01 -0.8 30.6 46 -11 12.2
23:40 1017 30.03 847 25.01 -0.7 30.7 46 -11 12.2
23:45 1017 30.03 846 24.98 -0.7 30.8 46 -10.9 12.3
23:50 1017 30.03 846 24.98 -0.6 30.9 45 -11.2 11.8
23:55 1017 30.03 846 24.98 -0.6 30.9 45 -11.2 11.9
24:00 1017 30.03 846 24.98 -0.7 30.7 45 -11.2 11.8